createdAt,value
2023-01-13T00:01:27.827Z,50.62
2023-01-13T00:03:57.005Z,50.32
2023-01-13T00:06:26.939Z,50.73
2023-01-13T00:08:57.827Z,50.92
2023-01-13T00:11:27.737Z,50.12
2023-01-13T00:13:57.147Z,50.71
2023-01-13T00:16:25.984Z,50.06
2023-01-13T00:18:54.595Z,49.90
2023-01-13T00:21:24.999Z,50.17
2023-01-13T00:23:55.122Z,49.71
2023-01-13T00:26:27.063Z,50.15
2023-01-13T00:28:58.935Z,49.61
2023-01-13T00:31:29.973Z,49.78
2023-01-13T00:34:00.160Z,50.14
2023-01-13T00:36:30.772Z,50.78
2023-01-13T00:39:00.225Z,49.92
2023-01-13T00:41:50.211Z,50.09
2023-01-13T00:44:18.239Z,50.74
2023-01-13T00:46:46.886Z,48.98
2023-01-13T00:49:16.110Z,49.31
2023-01-13T00:51:44.574Z,50.18
2023-01-13T00:54:13.365Z,50.06
2023-01-13T00:56:43.285Z,49.77
2023-01-13T00:59:13.591Z,50.61
2023-01-13T01:01:42.494Z,50.89
2023-01-13T01:04:12.204Z,50.25
2023-01-13T01:06:40.988Z,49.77
2023-01-13T01:09:14.072Z,50.24
2023-01-13T01:11:44.853Z,49.55
2023-01-13T01:14:15.423Z,50.10
2023-01-13T01:16:43.975Z,50.09
2023-01-13T01:19:12.888Z,49.79
2023-01-13T01:21:41.901Z,49.47
2023-01-13T01:24:11.408Z,49.38
2023-01-13T01:26:41.904Z,49.98
2023-01-13T01:29:15.210Z,49.75
2023-01-13T01:31:44.987Z,49.57
2023-01-13T01:34:13.928Z,50.12
2023-01-13T01:36:42.699Z,49.39
2023-01-13T01:39:12.007Z,49.77
2023-01-13T01:42:00.451Z,51.22
2023-01-13T01:44:53.804Z,50.31
2023-01-13T01:47:23.752Z,50.32
2023-01-13T01:49:52.980Z,50.22
2023-01-13T01:52:27.075Z,50.53
2023-01-13T01:55:00.873Z,50.02
2023-01-13T01:57:33.847Z,50.00
2023-01-13T02:00:05.426Z,50.61
2023-01-13T02:02:41.587Z,49.76
2023-01-13T02:05:10.848Z,50.04
2023-01-13T02:07:42.016Z,50.08
2023-01-13T02:10:13.601Z,49.64
2023-01-13T02:12:45.399Z,49.81
2023-01-13T02:15:18.999Z,49.98
2023-01-13T02:18:20.509Z,49.25
2023-01-13T02:21:13.748Z,50.82
2023-01-13T02:24:47.805Z,49.93
2023-01-13T02:27:41.900Z,50.82
2023-01-13T02:30:38.979Z,50.66
2023-01-13T02:33:20.461Z,51.39
2023-01-13T02:35:53.475Z,50.64
2023-01-13T02:38:28.815Z,51.40
2023-01-13T02:41:21.841Z,51.12
2023-01-13T02:44:08.345Z,50.83
2023-01-13T02:46:45.648Z,50.50
2023-01-13T02:49:21.298Z,50.56
2023-01-13T02:51:52.539Z,50.30
2023-01-13T02:54:25.699Z,50.94
2023-01-13T02:56:56.922Z,50.98
2023-01-13T02:59:27.945Z,50.71
2023-01-13T03:01:58.567Z,51.26
2023-01-13T03:04:51.527Z,50.56
2023-01-13T03:07:55.748Z,50.84
2023-01-13T03:10:39.083Z,50.61
2023-01-13T03:13:18.614Z,50.77
2023-01-13T03:16:01.427Z,50.68
2023-01-13T03:18:41.829Z,49.52
2023-01-13T03:21:21.039Z,50.30
2023-01-13T03:23:54.111Z,49.99
2023-01-13T03:26:32.042Z,50.15
2023-01-13T03:29:07.873Z,50.54
2023-01-13T03:31:44.498Z,50.06
2023-01-13T03:34:18.478Z,50.99
2023-01-13T03:36:51.449Z,51.12
2023-01-13T03:39:28.262Z,50.56
2023-01-13T03:42:01.613Z,50.48
2023-01-13T03:44:34.090Z,49.97
2023-01-13T03:47:11.400Z,50.37
2023-01-13T03:49:48.293Z,50.00
2023-01-13T03:52:24.250Z,50.87
2023-01-13T03:54:56.781Z,50.09
2023-01-13T03:57:30.637Z,50.02
2023-01-13T04:00:04.071Z,50.56
2023-01-13T04:02:54.960Z,50.49
2023-01-13T04:05:26.227Z,51.08
2023-01-13T04:08:02.220Z,51.49
2023-01-13T04:10:36.725Z,51.74
2023-01-13T04:13:09.276Z,50.96
2023-01-13T04:15:40.325Z,51.59
2023-01-13T04:18:15.835Z,51.80
2023-01-13T04:20:48.417Z,51.64
2023-01-13T04:23:18.265Z,51.70
2023-01-13T04:25:47.769Z,51.17
2023-01-13T04:28:17.844Z,52.00
2023-01-13T04:30:47.362Z,51.36
2023-01-13T04:33:17.945Z,51.59
2023-01-13T04:35:48.677Z,51.89
2023-01-13T04:38:20.596Z,51.35
2023-01-13T04:40:49.854Z,51.53
2023-01-13T04:43:18.999Z,51.07
2023-01-13T04:45:47.715Z,51.60
2023-01-13T04:48:16.586Z,51.38
2023-01-13T04:50:45.075Z,51.95
2023-01-13T04:53:15.409Z,51.77
2023-01-13T04:55:45.195Z,52.31
2023-01-13T04:58:14.013Z,52.26
2023-01-13T05:00:43.126Z,52.26
2023-01-13T05:03:12.104Z,51.86
2023-01-13T05:05:40.667Z,51.86
2023-01-13T05:08:10.164Z,51.49
2023-01-13T05:10:40.180Z,52.38
2023-01-13T05:13:27.697Z,51.79
2023-01-13T05:16:13.975Z,52.04
2023-01-13T05:18:43.022Z,52.05
2023-01-13T05:21:31.567Z,52.16
2023-01-13T05:24:17.724Z,51.89
2023-01-13T05:26:47.780Z,51.82
2023-01-13T05:29:16.687Z,51.48
2023-01-13T05:31:45.239Z,51.39
2023-01-13T05:34:14.457Z,51.69
2023-01-13T05:36:43.059Z,51.64
2023-01-13T05:39:12.088Z,51.62
2023-01-13T05:41:58.492Z,51.81
2023-01-13T05:44:28.836Z,51.71
2023-01-13T05:46:57.644Z,51.20
2023-01-13T05:49:26.515Z,50.80
2023-01-13T05:51:55.098Z,50.50
2023-01-13T05:54:23.899Z,51.53
2023-01-13T05:56:52.458Z,52.36
2023-01-13T05:59:21.402Z,51.68
2023-01-13T06:01:51.305Z,52.42
2023-01-13T06:04:20.255Z,51.99
2023-01-13T06:06:48.983Z,51.42
2023-01-13T06:09:17.965Z,51.74
2023-01-13T06:11:46.565Z,52.01
2023-01-13T06:14:15.856Z,52.33
2023-01-13T06:16:45.947Z,52.37
2023-01-13T06:19:16.436Z,52.17
2023-01-13T06:21:45.323Z,52.84
2023-01-13T06:24:14.246Z,51.69
2023-01-13T06:26:42.859Z,51.33
2023-01-13T06:29:15.027Z,51.33
2023-01-13T06:31:44.449Z,51.54
2023-01-13T06:34:14.785Z,51.37
2023-01-13T06:36:49.865Z,51.72
2023-01-13T06:39:23.647Z,51.99
2023-01-13T06:42:12.983Z,52.44
2023-01-13T06:44:42.125Z,52.15
2023-01-13T06:47:11.153Z,52.17
2023-01-13T06:49:40.102Z,51.74
2023-01-13T06:52:10.070Z,51.58
2023-01-13T06:54:39.063Z,51.88
2023-01-13T06:57:07.703Z,52.12
2023-01-13T06:59:36.684Z,51.52
2023-01-13T07:02:05.393Z,51.68
2023-01-13T07:04:34.325Z,51.81
2023-01-13T07:07:02.898Z,51.85
2023-01-13T07:09:33.219Z,51.61
2023-01-13T07:12:01.812Z,51.60
2023-01-13T07:14:48.315Z,51.98
2023-01-13T07:17:25.101Z,52.08
2023-01-13T07:19:54.721Z,51.73
2023-01-13T07:22:24.544Z,52.71
2023-01-13T07:24:54.849Z,51.50
2023-01-13T07:27:23.382Z,51.65
2023-01-13T07:29:52.203Z,52.13
2023-01-13T07:32:20.723Z,52.12
2023-01-13T07:34:49.588Z,52.10
2023-01-13T07:37:18.317Z,51.32
2023-01-13T07:39:47.375Z,51.67
2023-01-13T07:42:31.127Z,52.78
2023-01-13T07:45:00.313Z,51.52
2023-01-13T07:47:29.131Z,51.75
2023-01-13T07:49:57.996Z,51.73
2023-01-13T07:52:26.486Z,51.62
2023-01-13T07:54:55.258Z,52.57
2023-01-13T07:57:25.326Z,51.52
2023-01-13T07:59:54.239Z,51.57
2023-01-13T08:02:23.137Z,52.02
2023-01-13T08:04:52.085Z,52.12
2023-01-13T08:07:20.757Z,52.05
2023-01-13T08:09:49.899Z,52.26
2023-01-13T08:12:35.951Z,53.05
2023-01-13T08:15:10.110Z,52.77
2023-01-13T08:17:38.714Z,53.01
2023-01-13T08:20:08.912Z,54.10
2023-01-13T08:22:38.366Z,53.78
2023-01-13T08:25:08.109Z,53.30
2023-01-13T08:27:36.663Z,52.64
2023-01-13T08:30:08.494Z,52.90
2023-01-13T08:32:37.161Z,53.22
2023-01-13T08:35:06.771Z,53.03
2023-01-13T08:37:35.393Z,52.66
2023-01-13T08:40:04.608Z,53.28
2023-01-13T08:42:33.455Z,53.38
2023-01-13T08:45:02.291Z,53.11
2023-01-13T08:47:32.379Z,52.92
2023-01-13T08:50:01.296Z,52.59
2023-01-13T08:52:30.798Z,52.01
2023-01-13T08:54:59.649Z,52.31
2023-01-13T08:57:28.790Z,53.01
2023-01-13T08:59:57.863Z,52.91
2023-01-13T09:02:27.429Z,53.87
2023-01-13T09:04:57.791Z,54.30
2023-01-13T09:07:26.418Z,54.66
2023-01-13T09:09:56.875Z,54.21
2023-01-13T09:12:43.109Z,53.34
2023-01-13T09:15:12.553Z,54.14
2023-01-13T09:17:41.342Z,53.51
2023-01-13T09:20:13.805Z,54.17
2023-01-13T09:22:42.401Z,54.07
2023-01-13T09:25:12.607Z,53.42
2023-01-13T09:27:41.171Z,52.99
2023-01-13T09:30:11.533Z,53.44
2023-01-13T09:32:40.199Z,53.73
2023-01-13T09:35:10.326Z,52.92
2023-01-13T09:37:41.258Z,53.43
2023-01-13T09:40:32.169Z,53.41
2023-01-13T09:43:24.389Z,53.09
2023-01-13T09:46:01.619Z,53.07
2023-01-13T09:48:33.664Z,52.91
2023-01-13T09:51:14.701Z,52.67
2023-01-13T09:53:51.507Z,52.74
2023-01-13T09:56:20.319Z,52.27
2023-01-13T09:58:49.337Z,52.39
2023-01-13T10:01:29.452Z,51.63
2023-01-13T10:04:03.758Z,51.71
2023-01-13T10:06:38.804Z,51.90
2023-01-13T10:09:07.618Z,51.47
2023-01-13T10:12:01.438Z,51.88
2023-01-13T10:14:36.132Z,51.68
2023-01-13T10:17:13.350Z,50.87
2023-01-13T10:19:45.675Z,51.15
2023-01-13T10:22:35.861Z,50.72
2023-01-13T10:25:18.463Z,51.14
2023-01-13T10:27:50.229Z,51.71
2023-01-13T10:30:22.444Z,51.28
2023-01-13T10:32:55.979Z,50.62
2023-01-13T10:35:54.495Z,50.33
2023-01-13T10:38:27.786Z,50.46
2023-01-13T10:40:58.142Z,49.57
2023-01-13T10:43:28.044Z,50.48
2023-01-13T10:46:03.277Z,49.93
2023-01-13T10:48:41.132Z,48.90
2023-01-13T10:51:21.142Z,49.18
2023-01-13T10:53:55.997Z,48.76
2023-01-13T10:56:27.302Z,50.31
2023-01-13T10:59:14.123Z,48.58
2023-01-13T11:01:44.490Z,48.61
2023-01-13T11:04:29.620Z,48.40
2023-01-13T11:06:59.055Z,49.00
2023-01-13T11:09:31.702Z,48.11
2023-01-13T11:12:03.095Z,47.86
2023-01-13T11:14:42.590Z,47.34
2023-01-13T11:17:23.190Z,47.82
2023-01-13T11:19:58.613Z,48.46
2023-01-13T11:22:33.328Z,46.84
2023-01-13T11:25:05.927Z,47.53
2023-01-13T11:27:43.724Z,46.63
2023-01-13T11:30:23.253Z,47.02
2023-01-13T11:33:26.628Z,47.37
2023-01-13T11:36:04.533Z,47.31
2023-01-13T11:38:39.125Z,46.97
2023-01-13T11:41:19.082Z,46.84
2023-01-13T11:43:55.285Z,46.68
2023-01-13T11:46:28.684Z,46.68
2023-01-13T11:48:58.007Z,46.65
2023-01-13T11:51:35.660Z,46.64
2023-01-13T11:54:46.999Z,46.42
2023-01-13T11:57:40.644Z,46.01
2023-01-13T12:00:28.133Z,45.39
2023-01-13T12:03:11.710Z,47.20
2023-01-13T12:05:44.419Z,47.09
2023-01-13T12:08:19.837Z,46.87
2023-01-13T12:11:02.653Z,46.56
2023-01-13T12:13:45.796Z,46.62
2023-01-13T12:16:20.270Z,46.67
2023-01-13T12:19:07.657Z,46.42
2023-01-13T12:21:40.053Z,46.74
2023-01-13T12:24:18.306Z,46.69
2023-01-13T12:26:55.636Z,46.47
2023-01-13T12:29:32.075Z,47.20
2023-01-13T12:32:03.171Z,47.04
2023-01-13T12:34:41.102Z,47.90
2023-01-13T12:37:18.228Z,47.89
2023-01-13T12:40:00.721Z,47.24
2023-01-13T12:42:56.480Z,48.37
2023-01-13T12:45:31.319Z,47.84
2023-01-13T12:48:01.069Z,47.96
2023-01-13T12:50:42.404Z,48.18
2023-01-13T12:53:34.698Z,48.11
2023-01-13T12:56:42.222Z,48.08
2023-01-13T12:59:49.037Z,48.25
2023-01-13T13:03:07.451Z,48.41
2023-01-13T13:05:59.447Z,49.55
2023-01-13T13:08:45.593Z,49.06
2023-01-13T13:11:41.677Z,49.02
2023-01-13T13:14:13.847Z,49.66
2023-01-13T13:16:52.293Z,49.39
2023-01-13T13:19:50.970Z,49.90
2023-01-13T13:22:40.130Z,49.83
2023-01-13T13:25:28.349Z,49.88
2023-01-13T13:28:17.544Z,49.70
2023-01-13T13:30:57.452Z,49.05
2023-01-13T13:33:48.969Z,49.53
2023-01-13T13:36:40.538Z,49.47
2023-01-13T13:39:40.002Z,50.06
2023-01-13T13:42:32.444Z,50.33
2023-01-13T13:45:21.249Z,50.72
2023-01-13T13:47:50.549Z,50.51
2023-01-13T13:50:21.627Z,50.14
2023-01-13T13:52:57.634Z,49.73
2023-01-13T13:55:27.973Z,49.95
2023-01-13T13:57:58.562Z,49.16
2023-01-13T14:00:30.430Z,49.42
2023-01-13T14:03:01.649Z,49.73
2023-01-13T14:05:32.757Z,49.06
2023-01-13T14:08:05.427Z,48.93
2023-01-13T14:10:36.427Z,49.15
2023-01-13T14:13:15.621Z,49.12
2023-01-13T14:15:45.415Z,49.50
2023-01-13T14:18:17.913Z,49.53
2023-01-13T14:20:54.194Z,50.40
2023-01-13T14:23:28.634Z,51.24
2023-01-13T14:26:04.711Z,50.81
2023-01-13T14:28:38.022Z,51.44
2023-01-13T14:31:08.494Z,50.97
2023-01-13T14:33:40.926Z,50.74
2023-01-13T14:36:16.488Z,51.32
2023-01-13T14:38:48.468Z,50.64
2023-01-13T14:41:25.240Z,50.80
2023-01-13T14:43:59.324Z,50.83
2023-01-13T14:46:38.311Z,50.25
2023-01-13T14:49:16.088Z,50.59
2023-01-13T14:51:44.883Z,50.55
2023-01-13T14:54:46.110Z,49.89
2023-01-13T14:57:17.692Z,49.92
2023-01-13T14:59:51.931Z,50.00
2023-01-13T15:02:40.625Z,50.20
2023-01-13T15:05:31.991Z,50.06
2023-01-13T15:08:03.545Z,50.09
2023-01-13T15:10:38.115Z,50.42
2023-01-13T15:13:08.294Z,50.86
2023-01-13T15:15:39.226Z,51.18
2023-01-13T15:18:14.266Z,51.49
2023-01-13T15:20:43.716Z,51.36
2023-01-13T15:23:12.976Z,52.26
2023-01-13T15:25:45.533Z,52.41
2023-01-13T15:28:19.749Z,52.38
2023-01-13T15:30:49.627Z,52.88
2023-01-13T15:33:18.721Z,53.28
2023-01-13T15:35:50.262Z,53.57
2023-01-13T15:38:21.508Z,53.37
2023-01-13T15:40:53.544Z,52.72
2023-01-13T15:43:41.585Z,53.76
2023-01-13T15:46:32.158Z,53.98
2023-01-13T15:49:08.807Z,53.98
2023-01-13T15:51:38.930Z,54.01
2023-01-13T15:54:08.224Z,54.32
2023-01-13T15:56:42.092Z,53.95
2023-01-13T15:59:18.611Z,54.70
2023-01-13T16:01:47.713Z,54.48
2023-01-13T16:04:16.739Z,55.41
2023-01-13T16:06:47.611Z,55.27
2023-01-13T16:09:17.760Z,56.00
2023-01-13T16:11:48.095Z,55.67
2023-01-13T16:14:17.027Z,55.08
2023-01-13T16:16:46.137Z,54.78
2023-01-13T16:19:14.730Z,54.59
2023-01-13T16:21:45.373Z,55.78
2023-01-13T16:24:14.033Z,56.31
2023-01-13T16:26:42.993Z,56.25
2023-01-13T16:29:13.666Z,55.67
2023-01-13T16:31:42.663Z,56.07
2023-01-13T16:34:11.219Z,56.49
2023-01-13T16:36:40.203Z,56.49
2023-01-13T16:39:21.456Z,55.86
2023-01-13T16:41:50.451Z,55.48
2023-01-13T16:44:20.549Z,56.25
2023-01-13T16:46:50.028Z,56.06
2023-01-13T16:49:18.801Z,57.19
2023-01-13T16:51:47.760Z,57.05
2023-01-13T16:54:16.326Z,56.80
2023-01-13T16:56:45.425Z,55.91
2023-01-13T16:59:15.291Z,57.11
2023-01-13T17:01:45.981Z,56.57
2023-01-13T17:04:17.699Z,56.30
2023-01-13T17:06:54.328Z,56.15
2023-01-13T17:09:25.048Z,55.66
2023-01-13T17:11:54.077Z,56.07
2023-01-13T17:14:23.633Z,55.49
2023-01-13T17:16:58.449Z,55.63
2023-01-13T17:19:27.352Z,54.78
2023-01-13T17:21:56.375Z,55.37
2023-01-13T17:24:25.958Z,54.92
2023-01-13T17:26:54.844Z,55.36
2023-01-13T17:29:25.865Z,55.59
2023-01-13T17:31:56.472Z,54.54
2023-01-13T17:34:25.144Z,55.22
2023-01-13T17:36:54.180Z,54.39
2023-01-13T17:39:24.685Z,55.14
2023-01-13T17:41:55.948Z,55.27
2023-01-13T17:44:24.646Z,55.00
2023-01-13T17:46:53.657Z,54.94
2023-01-13T17:49:23.850Z,54.66
2023-01-13T17:51:53.119Z,54.38
2023-01-13T17:54:22.651Z,54.01
2023-01-13T17:56:51.604Z,53.41
2023-01-13T17:59:22.536Z,53.64
2023-01-13T18:01:51.773Z,53.48
2023-01-13T18:04:22.581Z,53.16
2023-01-13T18:06:53.661Z,53.34
2023-01-13T18:09:23.407Z,53.31
2023-01-13T18:11:52.300Z,53.17
2023-01-13T18:14:22.549Z,53.30
2023-01-13T18:16:51.758Z,53.46
2023-01-13T18:19:38.055Z,53.86
2023-01-13T18:22:25.710Z,53.86
2023-01-13T18:25:21.832Z,54.19
2023-01-13T18:27:51.021Z,54.04
2023-01-13T18:30:20.525Z,54.31
2023-01-13T18:32:49.429Z,54.40
2023-01-13T18:35:18.125Z,54.43
2023-01-13T18:37:48.576Z,54.63
2023-01-13T18:40:17.412Z,54.59
2023-01-13T18:42:59.265Z,54.16
2023-01-13T18:45:30.500Z,54.39
2023-01-13T18:48:01.707Z,54.53
2023-01-13T18:50:31.195Z,54.51
2023-01-13T18:53:01.810Z,54.86
2023-01-13T18:55:30.688Z,55.02
2023-01-13T18:57:59.600Z,56.21
2023-01-13T19:00:29.142Z,55.39
2023-01-13T19:05:35.733Z,55.39
2023-01-13T19:08:06.670Z,56.01
2023-01-13T19:10:36.628Z,55.64
2023-01-13T19:13:05.790Z,55.96
2023-01-13T19:15:37.469Z,55.71
2023-01-13T19:18:06.691Z,55.59
2023-01-13T19:20:35.453Z,55.62
2023-01-13T19:23:04.549Z,55.38
2023-01-13T19:25:34.459Z,54.65
2023-01-13T19:28:03.327Z,54.82
2023-01-13T19:30:32.075Z,55.53
2023-01-13T19:33:01.446Z,55.62
2023-01-13T19:35:30.489Z,54.72
2023-01-13T19:37:59.353Z,54.65
2023-01-13T19:40:28.137Z,55.40
2023-01-13T19:43:15.820Z,55.05
2023-01-13T19:45:44.995Z,55.56
2023-01-13T19:48:16.264Z,55.74
2023-01-13T19:50:44.889Z,56.19
2023-01-13T19:53:18.002Z,56.92
2023-01-13T19:55:48.435Z,56.16
2023-01-13T19:58:20.010Z,56.23
2023-01-13T20:00:48.751Z,55.82
2023-01-13T20:03:19.316Z,55.18
2023-01-13T20:05:48.479Z,55.32
2023-01-13T20:08:17.756Z,55.02
2023-01-13T20:10:47.444Z,55.71
2023-01-13T20:13:18.099Z,55.16
2023-01-13T20:15:46.820Z,55.28
2023-01-13T20:18:15.798Z,55.02
2023-01-13T20:20:44.302Z,55.43
2023-01-13T20:23:13.126Z,55.39
2023-01-13T20:25:43.471Z,55.19
2023-01-13T20:28:12.326Z,55.15
2023-01-13T20:30:42.544Z,55.55
2023-01-13T20:33:11.581Z,55.25
2023-01-13T20:35:40.374Z,55.83
2023-01-13T20:38:09.516Z,55.55
2023-01-13T20:40:38.131Z,55.42
2023-01-13T20:43:06.371Z,55.20
2023-01-13T20:45:35.201Z,55.03
2023-01-13T20:48:05.718Z,54.92
2023-01-13T20:50:34.282Z,54.78
2023-01-13T20:53:03.193Z,54.98
2023-01-13T20:55:31.995Z,54.94
2023-01-13T20:58:00.878Z,55.71
2023-01-13T21:00:29.841Z,55.28
2023-01-13T21:02:59.955Z,56.26
2023-01-13T21:05:29.961Z,56.44
2023-01-13T21:07:58.853Z,56.41
2023-01-13T21:10:27.385Z,57.01
2023-01-13T21:13:13.999Z,58.30
2023-01-13T21:15:48.066Z,57.05
2023-01-13T21:18:30.776Z,56.71
2023-01-13T21:21:12.470Z,57.47
2023-01-13T21:23:42.412Z,57.32
2023-01-13T21:26:12.324Z,57.05
2023-01-13T21:28:41.170Z,57.49
2023-01-13T21:31:10.633Z,57.54
2023-01-13T21:33:40.060Z,57.36
2023-01-13T21:36:13.284Z,59.04
2023-01-13T21:38:42.623Z,58.22
2023-01-13T21:41:14.418Z,58.24
2023-01-13T21:44:01.474Z,58.89
2023-01-13T21:46:47.468Z,58.03
2023-01-13T21:49:16.320Z,59.13
2023-01-13T21:51:46.375Z,59.13
2023-01-13T21:54:15.302Z,57.97
2023-01-13T21:56:43.837Z,57.57
2023-01-13T21:59:12.708Z,57.16
2023-01-13T22:02:02.874Z,57.13
2023-01-13T22:04:30.251Z,56.83
2023-01-13T22:07:04.565Z,56.60
2023-01-13T22:09:33.460Z,56.15
2023-01-13T22:12:02.491Z,56.17
2023-01-13T22:14:31.479Z,55.84
2023-01-13T22:17:01.247Z,55.68
2023-01-13T22:19:30.578Z,55.25
2023-01-13T22:22:00.649Z,55.15
2023-01-13T22:24:30.257Z,55.38
2023-01-13T22:26:58.857Z,55.27
2023-01-13T22:29:27.966Z,55.09
2023-01-13T22:31:56.689Z,54.50
2023-01-13T22:34:25.602Z,54.91
2023-01-13T22:36:54.335Z,54.56
2023-01-13T22:39:24.625Z,54.77
2023-01-13T22:41:53.465Z,54.03
2023-01-13T22:44:23.059Z,54.02
2023-01-13T22:46:51.644Z,53.37
2023-01-13T22:49:21.462Z,52.81
2023-01-13T22:51:50.111Z,53.19
2023-01-13T22:54:19.822Z,53.20
2023-01-13T22:56:49.865Z,53.08
2023-01-13T22:59:18.700Z,52.97
2023-01-13T23:01:47.588Z,54.00
2023-01-13T23:04:16.689Z,53.11
2023-01-13T23:06:45.410Z,53.51
2023-01-13T23:09:14.306Z,53.89
2023-01-13T23:11:43.195Z,54.20
2023-01-13T23:14:14.058Z,53.98
2023-01-13T23:16:44.000Z,53.60
2023-01-13T23:19:15.217Z,54.68
2023-01-13T23:21:44.188Z,54.40
2023-01-13T23:24:13.150Z,54.57
2023-01-13T23:26:42.353Z,54.30
2023-01-13T23:29:14.585Z,54.58
2023-01-13T23:31:43.320Z,55.11
2023-01-13T23:34:13.319Z,55.55
2023-01-13T23:36:43.418Z,55.46
2023-01-13T23:39:12.461Z,55.74
2023-01-13T23:41:41.126Z,55.94
2023-01-13T23:44:10.697Z,54.79
2023-01-13T23:46:40.837Z,55.31
2023-01-13T23:49:09.724Z,55.11
2023-01-13T23:51:38.323Z,55.76
2023-01-13T23:54:07.271Z,55.34
2023-01-13T23:56:39.408Z,56.47
2023-01-13T23:59:08.662Z,56.52
